Portada
METAR-TAF:

METAR-TAF

Aeroports :

Shawbury, Anglaterra

latitud: 52-48N, longitud: 002-40W, altitud: 76 m

Observació

L'informe es va fer fa 57 minuts, a les 20:50 UTC
Vent 3 kt del Oest/Sud-Oest
Temperatura 15°C
Humitat 77%
Pressió 1011 hPa
Visibilitat 10 km o més

METAR: EGOS 182050Z AUTO 25003KT 9999 FEW080/// 15/11 Q1011

Hora: 22:47 (21:47 UTC)

Pronòstic

L'informe es va fer fa 8 hores i 1 minuts, a les 13:46 UTC
Pronòstic vàlid del 18 a les 15 UTC al 18 a les 18 UTC
Vent 12 kt del Oest
Visibilitat 10 km o més
Núvols disperses a una alçada de 4000 ft
Temporalment
l' 18 a les 15 UTC al 18 a les 17 UTC
Vent 14 kt del Oest amb ràfegues de 22 kt

TAF: EGOS 181346Z 1815/1818 26012KT 9999 SCT040 TEMPO 1815/1817 26014G22KT

Observacions i pronòstics meteorològics de més de 4000 aeroports (METAR i TAF).

Les estacions disponibles són els punts grocs i vermells al mapa.

Posi el ratolí al punt desitjat per veure el nom de l'estació.

Feu clic per veure les observacions i els pronòstics meteorològics.

Per canviar el mapa: feu clic els botons verds amb una creu de color negre per apropar; al botó verd amb un guió per allunyar la imatge; o en les fletxes verdes per a mapes adjacents.


METAR-TAF: